createdAt,value
2023-05-22T00:01:46.851Z,6.40
2023-05-22T00:04:21.274Z,6.10
2023-05-22T00:06:49.561Z,5.60
2023-05-22T00:09:17.615Z,5.70
2023-05-22T00:11:45.479Z,4.80
2023-05-22T00:14:16.237Z,6.70
2023-05-22T00:16:44.598Z,7.60
2023-05-22T00:19:16.582Z,6.20
2023-05-22T00:21:44.816Z,5.70
2023-05-22T00:24:12.774Z,4.50
2023-05-22T00:26:40.574Z,6.00
2023-05-22T00:29:08.453Z,5.50
2023-05-22T00:31:36.151Z,5.40
2023-05-22T00:34:03.848Z,6.70
2023-05-22T00:36:31.613Z,7.30
2023-05-22T00:38:59.332Z,7.50
2023-05-22T00:41:27.307Z,5.20
2023-05-22T00:43:54.955Z,7.50
2023-05-22T00:46:22.978Z,5.10
2023-05-22T00:48:52.668Z,5.50
2023-05-22T00:51:22.399Z,6.60
2023-05-22T00:53:52.107Z,5.30
2023-05-22T00:56:21.849Z,6.20
2023-05-22T00:58:50.758Z,6.90
2023-05-22T01:01:18.866Z,6.40
2023-05-22T01:03:46.974Z,7.20
2023-05-22T01:06:18.590Z,7.90
2023-05-22T01:08:46.311Z,5.60
2023-05-22T01:11:31.096Z,7.40
2023-05-22T01:14:17.473Z,6.10
2023-05-22T01:16:54.881Z,5.90
2023-05-22T01:20:07.421Z,4.90
2023-05-22T01:22:58.402Z,5.10
2023-05-22T01:25:53.040Z,5.40
2023-05-22T01:29:03.835Z,5.50
2023-05-22T01:31:36.761Z,8.50
2023-05-22T01:34:07.328Z,4.80
2023-05-22T01:36:38.304Z,7.10
2023-05-22T01:39:07.861Z,5.90
2023-05-22T01:41:36.474Z,6.20
2023-05-22T01:44:04.327Z,6.40
2023-05-22T01:46:32.398Z,6.20
2023-05-22T01:49:00.609Z,5.00
2023-05-22T01:51:43.328Z,7.40
2023-05-22T01:54:24.135Z,6.20
2023-05-22T01:57:02.761Z,7.10
2023-05-22T01:59:56.984Z,9.20
2023-05-22T02:02:27.655Z,11.10
2023-05-22T02:05:01.662Z,11.00
2023-05-22T02:07:33.424Z,10.90
2023-05-22T02:10:02.984Z,7.00
2023-05-22T02:12:31.049Z,8.00
2023-05-22T02:14:58.861Z,6.60
2023-05-22T02:17:27.192Z,6.60
2023-05-22T02:19:54.918Z,6.10
2023-05-22T02:22:22.604Z,5.90
2023-05-22T02:24:50.394Z,5.80
2023-05-22T02:27:18.183Z,6.10
2023-05-22T02:29:46.674Z,9.10
2023-05-22T02:32:14.315Z,6.20
2023-05-22T02:34:42.080Z,5.70
2023-05-22T02:37:09.776Z,8.50
2023-05-22T02:39:37.418Z,5.80
2023-05-22T02:42:05.735Z,7.40
2023-05-22T02:44:33.431Z,5.30
2023-05-22T02:47:01.213Z,5.70
2023-05-22T02:49:28.864Z,6.00
2023-05-22T02:51:56.639Z,7.40
2023-05-22T02:54:24.287Z,6.80
2023-05-22T02:56:51.968Z,4.80
2023-05-22T02:59:19.714Z,5.70
2023-05-22T03:01:48.467Z,7.60
2023-05-22T03:04:16.574Z,6.80
2023-05-22T03:06:46.304Z,6.20
2023-05-22T03:09:14.228Z,5.60
2023-05-22T03:11:42.562Z,4.90
2023-05-22T03:14:10.328Z,6.70
2023-05-22T03:16:38.029Z,7.00
2023-05-22T03:19:14.836Z,5.50
2023-05-22T03:21:45.884Z,6.90
2023-05-22T03:24:13.588Z,6.50
2023-05-22T03:26:42.075Z,6.50
2023-05-22T03:29:10.070Z,6.00
2023-05-22T03:31:37.879Z,6.30
2023-05-22T03:34:06.198Z,7.70
2023-05-22T03:36:36.663Z,7.00
2023-05-22T03:39:05.255Z,5.50
2023-05-22T03:41:33.019Z,9.60
2023-05-22T03:44:00.800Z,7.90
2023-05-22T03:46:28.577Z,6.10
2023-05-22T03:48:56.361Z,6.50
2023-05-22T03:51:23.994Z,4.70
2023-05-22T03:53:51.870Z,6.80
2023-05-22T03:56:19.601Z,6.90
2023-05-22T03:58:47.260Z,6.70
2023-05-22T04:01:16.903Z,6.60
2023-05-22T04:03:44.727Z,6.00
2023-05-22T04:06:13.804Z,5.90
2023-05-22T04:08:41.595Z,5.90
2023-05-22T04:11:09.250Z,6.60
2023-05-22T04:13:36.899Z,7.80
2023-05-22T04:16:04.969Z,5.20
2023-05-22T04:18:32.708Z,7.70
2023-05-22T04:21:00.907Z,9.00
2023-05-22T04:23:28.904Z,8.80
2023-05-22T04:25:58.268Z,8.30
2023-05-22T04:28:26.985Z,6.10
2023-05-22T04:30:55.338Z,6.00
2023-05-22T04:33:24.673Z,11.90
2023-05-22T04:35:52.444Z,10.20
2023-05-22T04:38:20.537Z,13.10
2023-05-22T04:40:48.439Z,9.70
2023-05-22T04:43:18.757Z,13.00
2023-05-22T04:45:46.892Z,13.30
2023-05-22T04:48:15.403Z,14.20
2023-05-22T04:50:47.412Z,10.30
2023-05-22T04:53:15.212Z,10.00
2023-05-22T04:55:43.082Z,8.50
2023-05-22T04:58:10.750Z,7.50
2023-05-22T05:00:38.800Z,7.30
2023-05-22T05:03:08.369Z,6.40
2023-05-22T05:05:36.348Z,7.00
2023-05-22T05:08:04.207Z,9.80
2023-05-22T05:10:31.958Z,7.80
2023-05-22T05:12:59.692Z,6.70
2023-05-22T05:15:29.071Z,5.70
2023-05-22T05:17:56.750Z,7.30
2023-05-22T05:20:24.877Z,7.70
2023-05-22T05:22:52.730Z,8.60
2023-05-22T05:25:20.454Z,6.80
2023-05-22T05:27:48.372Z,7.30
2023-05-22T05:30:17.652Z,6.20
2023-05-22T05:32:47.426Z,5.90
2023-05-22T05:35:15.247Z,6.00
2023-05-22T05:37:43.530Z,5.90
2023-05-22T05:40:13.122Z,7.10
2023-05-22T05:42:40.840Z,9.00
2023-05-22T05:45:09.749Z,7.50
2023-05-22T05:47:37.466Z,4.70
2023-05-22T05:50:06.298Z,8.30
2023-05-22T05:52:34.251Z,7.40
2023-05-22T05:55:01.968Z,5.90
2023-05-22T05:57:31.044Z,7.80
2023-05-22T05:59:58.774Z,7.10
2023-05-22T06:02:26.538Z,6.90
2023-05-22T06:04:56.044Z,6.40
2023-05-22T06:07:24.416Z,6.00
2023-05-22T06:09:52.697Z,6.60
2023-05-22T06:12:20.356Z,6.50
2023-05-22T06:14:48.060Z,5.90
2023-05-22T06:17:16.810Z,5.60
2023-05-22T06:19:44.705Z,7.80
2023-05-22T06:22:12.413Z,5.10
2023-05-22T06:24:40.136Z,5.00
2023-05-22T06:27:08.033Z,6.40
2023-05-22T06:29:35.784Z,6.80
2023-05-22T06:32:03.671Z,7.50
2023-05-22T06:34:31.732Z,6.90
2023-05-22T06:36:59.474Z,6.50
2023-05-22T06:39:27.140Z,6.60
2023-05-22T06:41:54.922Z,6.30
2023-05-22T06:44:22.590Z,7.10
2023-05-22T06:46:50.297Z,10.30
2023-05-22T06:49:19.552Z,5.10
2023-05-22T06:51:47.440Z,5.80
2023-05-22T06:54:15.395Z,6.60
2023-05-22T06:56:43.715Z,7.90
2023-05-22T06:59:14.422Z,7.10
2023-05-22T07:01:42.157Z,6.00
2023-05-22T07:04:11.897Z,5.90
2023-05-22T07:06:41.837Z,5.40
2023-05-22T07:09:11.346Z,8.20
2023-05-22T07:11:39.174Z,7.60
2023-05-22T07:14:07.901Z,6.30
2023-05-22T07:16:37.067Z,7.40
2023-05-22T07:19:05.026Z,6.30
2023-05-22T07:21:35.185Z,6.60
2023-05-22T07:24:08.278Z,5.90
2023-05-22T07:26:37.583Z,5.20
2023-05-22T07:29:05.491Z,6.30
2023-05-22T07:31:34.463Z,6.10
2023-05-22T07:34:02.356Z,5.30
2023-05-22T07:36:30.212Z,6.10
2023-05-22T07:38:58.237Z,6.70
2023-05-22T07:41:27.455Z,5.50
2023-05-22T07:43:55.315Z,4.90
2023-05-22T07:46:23.150Z,5.50
2023-05-22T07:48:50.879Z,4.80
2023-05-22T07:51:18.672Z,4.20
2023-05-22T07:53:46.911Z,4.70
2023-05-22T07:56:14.661Z,6.40
2023-05-22T07:58:42.446Z,5.50
2023-05-22T08:01:10.172Z,5.80
2023-05-22T08:03:38.010Z,5.90
2023-05-22T08:06:06.903Z,5.80
2023-05-22T08:08:34.797Z,5.50
2023-05-22T08:11:04.755Z,5.00
2023-05-22T08:13:32.761Z,6.70
2023-05-22T08:16:01.550Z,5.40
2023-05-22T08:18:29.944Z,4.00
2023-05-22T08:20:59.745Z,3.90
2023-05-22T08:23:27.652Z,5.10
2023-05-22T08:25:56.744Z,5.70
2023-05-22T08:28:24.619Z,6.30
2023-05-22T08:30:52.473Z,5.30
2023-05-22T08:33:20.253Z,5.00
2023-05-22T08:35:48.014Z,5.20
2023-05-22T08:38:16.320Z,5.30
2023-05-22T08:40:49.874Z,6.10
2023-05-22T08:43:21.415Z,5.20
2023-05-22T08:46:09.820Z,5.20
2023-05-22T08:48:38.369Z,5.00
2023-05-22T08:51:07.644Z,4.10
2023-05-22T08:53:37.054Z,3.90
2023-05-22T08:56:08.441Z,4.30
2023-05-22T08:58:38.257Z,3.90
2023-05-22T09:01:07.412Z,7.30
2023-05-22T09:03:36.941Z,3.80
2023-05-22T09:06:10.467Z,4.50
2023-05-22T09:08:39.297Z,5.70
2023-05-22T09:11:07.005Z,6.10
2023-05-22T09:13:34.660Z,5.10
2023-05-22T09:16:11.695Z,7.70
2023-05-22T09:18:41.269Z,4.30
2023-05-22T09:21:25.713Z,5.10
2023-05-22T09:24:01.743Z,5.30
2023-05-22T09:26:30.371Z,6.10
2023-05-22T09:29:00.798Z,6.10
2023-05-22T09:31:29.616Z,6.40
2023-05-22T09:33:59.070Z,5.60
2023-05-22T09:36:33.855Z,5.10
2023-05-22T09:39:04.166Z,4.00
2023-05-22T09:41:38.689Z,5.70
2023-05-22T09:44:14.272Z,5.80
2023-05-22T09:46:47.446Z,6.00
2023-05-22T09:49:17.219Z,4.60
2023-05-22T09:51:49.548Z,5.50
2023-05-22T09:54:20.245Z,6.10
2023-05-22T09:56:50.671Z,7.90
2023-05-22T09:59:27.107Z,7.20
2023-05-22T10:01:55.172Z,5.70
2023-05-22T10:04:23.992Z,6.80
2023-05-22T10:06:57.595Z,6.20
2023-05-22T10:09:32.776Z,4.00
2023-05-22T10:12:08.259Z,6.20
2023-05-22T10:14:36.725Z,6.20
2023-05-22T10:17:06.958Z,5.60
2023-05-22T10:19:39.688Z,6.30
2023-05-22T10:22:14.968Z,7.40
2023-05-22T10:24:43.292Z,5.10
2023-05-22T10:27:11.083Z,3.50
2023-05-22T10:29:56.685Z,5.00
2023-05-22T10:32:38.993Z,5.50
2023-05-22T10:35:36.327Z,4.40
2023-05-22T10:38:39.933Z,4.50
2023-05-22T10:41:09.716Z,5.20
2023-05-22T10:43:44.244Z,6.30
2023-05-22T10:46:13.291Z,5.80
2023-05-22T10:48:45.746Z,7.10
2023-05-22T10:51:18.110Z,6.60
2023-05-22T10:53:53.231Z,5.50
2023-05-22T10:56:24.464Z,4.50
2023-05-22T10:59:08.423Z,5.20
2023-05-22T11:01:38.345Z,6.60
2023-05-22T11:04:11.943Z,10.80
2023-05-22T11:06:50.070Z,6.60
2023-05-22T11:09:29.616Z,5.70
2023-05-22T11:12:24.489Z,6.60
2023-05-22T11:14:58.959Z,7.00
2023-05-22T11:17:30.105Z,5.20
2023-05-22T11:20:24.344Z,6.90
2023-05-22T11:23:05.729Z,6.10
2023-05-22T11:25:36.666Z,6.20
2023-05-22T11:28:06.545Z,6.90
2023-05-22T11:30:35.294Z,8.80
2023-05-22T11:33:03.249Z,5.90
2023-05-22T11:35:31.916Z,6.10
2023-05-22T11:38:03.648Z,6.30
2023-05-22T11:40:31.483Z,6.20
2023-05-22T11:42:59.360Z,9.10
2023-05-22T11:45:27.417Z,5.10
2023-05-22T11:47:56.053Z,6.40
2023-05-22T11:50:40.263Z,5.50
2023-05-22T11:53:08.708Z,5.00
2023-05-22T11:55:36.414Z,7.20
2023-05-22T11:58:04.173Z,6.60
2023-05-22T12:00:32.576Z,6.20
2023-05-22T12:03:01.072Z,6.50
2023-05-22T12:05:32.260Z,5.60
2023-05-22T12:08:00.194Z,10.30
2023-05-22T12:10:29.204Z,6.50
2023-05-22T12:12:57.022Z,6.70
2023-05-22T12:15:25.476Z,4.00
2023-05-22T12:17:56.460Z,6.50
2023-05-22T12:20:31.040Z,6.10
2023-05-22T12:22:59.763Z,6.50
2023-05-22T12:25:37.322Z,6.30
2023-05-22T12:28:08.185Z,6.70
2023-05-22T12:30:42.990Z,6.40
2023-05-22T12:33:17.351Z,6.50
2023-05-22T12:35:45.114Z,4.70
2023-05-22T12:38:13.684Z,5.30
2023-05-22T12:40:41.568Z,6.80
2023-05-22T12:43:09.587Z,5.90
2023-05-22T12:45:37.286Z,7.80
2023-05-22T12:48:07.752Z,5.50
2023-05-22T12:50:36.209Z,6.60
2023-05-22T12:53:04.009Z,5.30
2023-05-22T12:55:33.149Z,7.30
2023-05-22T12:58:01.349Z,8.20
2023-05-22T13:00:29.225Z,5.80
2023-05-22T13:02:57.409Z,5.00
2023-05-22T13:05:25.612Z,6.80
2023-05-22T13:07:53.423Z,6.80
2023-05-22T13:10:21.474Z,6.50
2023-05-22T13:12:51.295Z,6.30
2023-05-22T13:15:19.173Z,5.70
2023-05-22T13:17:46.953Z,7.30
2023-05-22T13:20:14.958Z,6.40
2023-05-22T13:22:42.794Z,5.20
2023-05-22T13:25:10.634Z,6.40
2023-05-22T13:27:38.309Z,6.60
2023-05-22T13:30:07.179Z,7.10
2023-05-22T13:32:35.341Z,5.80
2023-05-22T13:35:03.143Z,6.30
2023-05-22T13:37:31.186Z,5.30
2023-05-22T13:39:59.018Z,5.80
2023-05-22T13:42:26.748Z,7.40
2023-05-22T13:44:54.639Z,7.50
2023-05-22T13:47:23.282Z,6.90
2023-05-22T13:49:51.574Z,5.90
2023-05-22T13:52:19.328Z,4.10
2023-05-22T13:54:47.175Z,5.70
2023-05-22T13:57:14.880Z,4.40
2023-05-22T13:59:42.634Z,6.00
2023-05-22T14:02:10.872Z,5.40
2023-05-22T14:04:38.721Z,4.60
2023-05-22T14:07:06.622Z,5.80
2023-05-22T14:09:34.295Z,7.60
2023-05-22T14:12:02.800Z,10.30
2023-05-22T14:14:30.538Z,4.30
2023-05-22T14:16:59.978Z,5.50
2023-05-22T14:19:28.854Z,5.00
2023-05-22T14:21:56.617Z,4.90
2023-05-22T14:24:24.389Z,6.20
2023-05-22T14:26:53.047Z,5.50
2023-05-22T14:29:21.074Z,4.80
2023-05-22T14:31:51.843Z,6.20
2023-05-22T14:34:20.047Z,6.00
2023-05-22T14:36:48.360Z,7.30
2023-05-22T14:39:16.481Z,5.30
2023-05-22T14:41:44.280Z,5.40
2023-05-22T14:44:12.010Z,5.50
2023-05-22T14:46:39.799Z,5.10
2023-05-22T14:49:07.598Z,7.60
2023-05-22T14:51:35.418Z,3.90
2023-05-22T14:54:04.826Z,5.10
2023-05-22T14:56:32.512Z,6.10
2023-05-22T14:59:00.565Z,5.60
2023-05-22T15:01:28.369Z,5.80
2023-05-22T15:03:56.086Z,6.00
2023-05-22T15:06:23.726Z,5.50
2023-05-22T15:08:51.544Z,5.10
2023-05-22T15:11:19.310Z,4.20
2023-05-22T15:13:47.028Z,5.50
2023-05-22T15:16:14.746Z,6.80
2023-05-22T15:18:42.523Z,5.70
2023-05-22T15:21:10.691Z,5.30
2023-05-22T15:23:38.333Z,5.20
2023-05-22T15:26:06.934Z,7.00
2023-05-22T15:28:34.797Z,7.10
2023-05-22T15:31:02.497Z,6.00
2023-05-22T15:33:30.349Z,5.00
2023-05-22T15:35:57.962Z,5.10
2023-05-22T15:38:25.699Z,5.40
2023-05-22T15:40:53.640Z,6.00
2023-05-22T15:43:21.380Z,6.20
2023-05-22T15:45:49.411Z,6.50
2023-05-22T15:48:17.253Z,6.40
2023-05-22T15:50:45.175Z,5.70
2023-05-22T15:53:12.872Z,8.10
2023-05-22T15:55:40.783Z,5.70
2023-05-22T15:58:08.799Z,7.30
2023-05-22T16:00:41.164Z,5.90
2023-05-22T16:03:10.186Z,6.40
2023-05-22T16:05:40.351Z,5.70
2023-05-22T16:08:11.447Z,4.30
2023-05-22T16:10:41.572Z,6.80
2023-05-22T16:13:12.246Z,6.60
2023-05-22T16:15:41.411Z,7.80
2023-05-22T16:18:11.180Z,7.10
2023-05-22T16:20:39.012Z,7.10
2023-05-22T16:23:06.717Z,4.40
2023-05-22T16:25:34.433Z,7.20
2023-05-22T16:28:02.239Z,5.40
2023-05-22T16:30:30.085Z,6.80
2023-05-22T16:32:57.857Z,5.30
2023-05-22T16:35:25.951Z,6.60
2023-05-22T16:37:53.962Z,6.60
2023-05-22T16:40:21.767Z,5.30
2023-05-22T16:42:50.767Z,7.00
2023-05-22T16:45:18.460Z,8.80
2023-05-22T16:47:46.265Z,7.00
2023-05-22T16:50:13.962Z,9.90
2023-05-22T16:52:41.736Z,6.90
2023-05-22T16:55:09.717Z,7.20
2023-05-22T16:57:38.773Z,5.50
2023-05-22T17:00:10.811Z,6.70
2023-05-22T17:02:38.823Z,6.90
2023-05-22T17:05:07.589Z,5.70
2023-05-22T17:07:35.340Z,7.10
2023-05-22T17:10:03.106Z,6.00
2023-05-22T17:12:31.043Z,7.90
2023-05-22T17:14:58.750Z,6.50
2023-05-22T17:17:27.761Z,7.60
2023-05-22T17:19:55.598Z,8.20
2023-05-22T17:22:23.272Z,7.40
2023-05-22T17:24:51.034Z,6.90
2023-05-22T17:27:34.365Z,6.20
2023-05-22T17:30:03.406Z,6.30
2023-05-22T17:32:31.196Z,6.60
2023-05-22T17:35:00.053Z,7.50
2023-05-22T17:37:28.139Z,8.70
2023-05-22T17:39:55.902Z,6.70
2023-05-22T17:42:23.690Z,6.40
2023-05-22T17:44:51.719Z,5.60
2023-05-22T17:47:19.429Z,6.80
2023-05-22T17:49:47.133Z,6.80
2023-05-22T17:52:14.984Z,7.00
2023-05-22T17:54:42.754Z,6.10
2023-05-22T17:57:10.577Z,6.70
2023-05-22T17:59:40.322Z,7.20
2023-05-22T18:02:09.448Z,8.70
2023-05-22T18:04:37.155Z,7.40
2023-05-22T18:07:05.377Z,8.20
2023-05-22T18:09:33.015Z,9.10
2023-05-22T18:12:02.407Z,9.90
2023-05-22T18:14:30.154Z,10.30
2023-05-22T18:16:58.331Z,7.60
2023-05-22T18:19:26.115Z,11.30
2023-05-22T18:21:54.077Z,11.00
2023-05-22T18:24:27.717Z,8.30
2023-05-22T18:26:55.836Z,8.20
2023-05-22T18:29:23.491Z,8.30
2023-05-22T18:31:51.241Z,7.10
2023-05-22T18:34:19.727Z,6.10
2023-05-22T18:36:49.363Z,7.30
2023-05-22T18:39:17.094Z,10.00
2023-05-22T18:41:44.765Z,7.50
2023-05-22T18:44:12.454Z,7.90
2023-05-22T18:46:40.229Z,9.40
2023-05-22T18:49:08.024Z,9.10
2023-05-22T18:51:37.105Z,9.10
2023-05-22T18:54:04.838Z,10.00
2023-05-22T18:56:32.580Z,9.80
2023-05-22T18:59:00.303Z,12.60
2023-05-22T19:01:28.795Z,11.10
2023-05-22T19:03:56.871Z,10.80
2023-05-22T19:06:26.263Z,13.10
2023-05-22T19:08:54.014Z,13.80
2023-05-22T19:11:21.672Z,12.80
2023-05-22T19:13:49.360Z,15.00
2023-05-22T19:16:17.452Z,11.60
2023-05-22T19:18:46.508Z,12.40
2023-05-22T19:21:14.191Z,10.90
2023-05-22T19:23:42.765Z,10.70
2023-05-22T19:26:10.743Z,9.30
2023-05-22T19:28:40.406Z,10.30
2023-05-22T19:31:09.833Z,10.60
2023-05-22T19:33:37.586Z,9.40
2023-05-22T19:36:06.780Z,9.10
2023-05-22T19:38:35.916Z,11.90
2023-05-22T19:41:04.053Z,8.20
2023-05-22T19:43:32.006Z,9.20
2023-05-22T19:46:00.315Z,9.60
2023-05-22T19:48:29.928Z,9.60
2023-05-22T19:50:59.055Z,9.80
2023-05-22T19:53:26.776Z,10.70
2023-05-22T19:55:54.500Z,17.40
2023-05-22T19:58:22.186Z,10.50
2023-05-22T20:00:49.910Z,12.40
2023-05-22T20:03:20.451Z,12.70
2023-05-22T20:05:55.625Z,11.50
2023-05-22T20:08:25.471Z,9.40
2023-05-22T20:10:53.534Z,9.50
2023-05-22T20:13:21.284Z,15.10
2023-05-22T20:15:51.205Z,11.10
2023-05-22T20:18:20.819Z,12.10
2023-05-22T20:20:48.641Z,13.90
2023-05-22T20:23:17.408Z,13.40
2023-05-22T20:25:45.233Z,13.30
2023-05-22T20:28:12.961Z,16.90
2023-05-22T20:30:40.886Z,13.40
2023-05-22T20:33:08.761Z,10.80
2023-05-22T20:35:37.249Z,11.50
2023-05-22T20:38:08.676Z,10.30
2023-05-22T20:40:42.343Z,13.70
2023-05-22T20:43:13.857Z,12.30
2023-05-22T20:45:45.780Z,9.30
2023-05-22T20:48:14.234Z,14.10
2023-05-22T20:50:42.335Z,9.70
2023-05-22T20:53:10.133Z,9.90
2023-05-22T20:55:37.863Z,11.10
2023-05-22T20:58:05.846Z,11.80
2023-05-22T21:00:34.959Z,11.70
2023-05-22T21:03:02.789Z,13.80
2023-05-22T21:05:30.902Z,11.20
2023-05-22T21:07:58.624Z,10.40
2023-05-22T21:10:26.496Z,10.10
2023-05-22T21:12:54.163Z,11.80
2023-05-22T21:15:21.962Z,11.00
2023-05-22T21:17:49.788Z,13.40
2023-05-22T21:20:17.615Z,14.10
2023-05-22T21:22:47.720Z,11.20
2023-05-22T21:25:15.624Z,10.90
2023-05-22T21:27:43.305Z,10.50
2023-05-22T21:30:13.197Z,12.10
2023-05-22T21:32:41.141Z,10.80
2023-05-22T21:35:09.773Z,10.70
2023-05-22T21:37:37.737Z,9.60
2023-05-22T21:40:07.786Z,10.10
2023-05-22T21:42:46.614Z,11.10
2023-05-22T21:45:15.244Z,9.40
2023-05-22T21:47:43.194Z,10.80
2023-05-22T21:50:11.733Z,10.70
2023-05-22T21:52:39.536Z,9.40
2023-05-22T21:55:07.915Z,11.40
2023-05-22T21:57:36.543Z,8.60
2023-05-22T22:00:04.766Z,10.60
2023-05-22T22:02:32.463Z,9.70
2023-05-22T22:05:00.509Z,10.20
2023-05-22T22:07:28.197Z,10.10
2023-05-22T22:09:55.875Z,10.60
2023-05-22T22:12:23.691Z,10.50
2023-05-22T22:14:51.438Z,10.10
2023-05-22T22:17:23.767Z,11.10
2023-05-22T22:19:53.683Z,10.00
2023-05-22T22:22:22.774Z,10.00
2023-05-22T22:24:50.820Z,9.20
2023-05-22T22:27:19.823Z,9.80
2023-05-22T22:29:47.620Z,9.60
2023-05-22T22:32:15.429Z,8.30
2023-05-22T22:34:45.933Z,9.50
2023-05-22T22:37:14.045Z,10.20
2023-05-22T22:39:41.730Z,9.10
2023-05-22T22:42:09.341Z,9.40
2023-05-22T22:44:37.030Z,7.60
2023-05-22T22:47:04.990Z,8.40
2023-05-22T22:49:32.956Z,8.40
2023-05-22T22:52:00.931Z,8.10
2023-05-22T22:54:28.637Z,7.90
2023-05-22T22:56:56.452Z,10.90
2023-05-22T22:59:24.369Z,7.90
2023-05-22T23:01:52.159Z,9.70
2023-05-22T23:04:20.131Z,10.40
2023-05-22T23:06:47.997Z,9.80
2023-05-22T23:09:15.691Z,8.50
2023-05-22T23:11:43.454Z,9.80
2023-05-22T23:14:11.234Z,8.20
2023-05-22T23:16:43.178Z,9.90
2023-05-22T23:19:11.860Z,10.70
2023-05-22T23:21:39.880Z,8.30
2023-05-22T23:24:07.744Z,9.60
2023-05-22T23:26:35.546Z,10.30
2023-05-22T23:29:03.297Z,8.40
2023-05-22T23:31:31.323Z,9.90
2023-05-22T23:33:59.121Z,8.70
2023-05-22T23:36:26.918Z,9.10
2023-05-22T23:38:54.674Z,7.90
2023-05-22T23:41:22.309Z,8.00
2023-05-22T23:43:49.991Z,9.00
2023-05-22T23:46:21.221Z,8.00
2023-05-22T23:48:49.128Z,10.00
2023-05-22T23:51:16.985Z,9.50
2023-05-22T23:53:45.120Z,9.20
2023-05-22T23:56:12.877Z,8.70
2023-05-22T23:58:40.646Z,8.50
